YLHI

Details ICAO YLHI (LDH)
Name Lord Howe Island
Region Australia
Timezone Unknown (UTC+0.0)
Plans Departing 20
Arriving 40
Stats Elevation 16 ft / 5 m (AMSL)
Location -31.538405° 159.075986°
Runways 1
Magnetic Variation 14.065° E
Sunrise 2018-05-27 20:13:38 UTC / 2018-05-27 20:13:38 Local
Sunset 2018-05-28 06:31:05 UTC / 2018-05-28 06:31:05 Local
Advertisement - Login to hide

Runways

ID Width Length Bearing (true) Bearing (mag) Surface Threshold Offset Overrun Length
10 98 ft / 30 m 2,902 ft / 885 m 114.50° 100.44° Asphalt 0 ft / 0 m 194 ft / 59 m
28 98 ft / 30 m 2,902 ft / 885 m 294.50° 280.44° Asphalt 322 ft / 98 m 190 ft / 58 m

Map

Weather


0- 5 10 15 20 25 30 35+ Temperature / ° C

Clouds and Precipitation
Forecast for 2018-05-28 00:00 UTC. Updated 33 minutes ago

Ground ~20,000 ft ~40,000 ft Winds

METAR

YLHI 272330Z 23007KT 9999 FEW042 BKN050 19/08 Q1025

TAF

TAF YLHI 271713Z 2718/2818 14010KT 9999 -SHRA SCT025 BKN040 INTER 2718/2723 4000 SHRA BKN015

Frequencies

Unicom 126.70 MHz LORD HOWE ISLAND MULT
Warning: Do not use this data for real-world aviation or navigation. No guarantee of current accuracy is given.